Time;durP1;ratioP1;P1;durP2;ratioP2;P2;SDS_P1;SDS_P2;PMS_P1;PMS_P2;Temp;Humidity;BMP_temperature;BMP_pressure;BME280_temperature;BME280_humidity;BME280_pressure;Samples;Min_cycle;Max_cycle;Signal;HPM_P1;HPM_P2
2024/01/29 00:00:45;;;;;;;5.78;2.65;;;6.80;59.30;;;;;;5132738;27;20100;-71
2024/01/29 00:03:12;;;;;;;6.13;2.60;;;6.80;59.40;;;;;;5115872;27;20067;-71
2024/01/29 00:05:39;;;;;;;7.20;2.88;;;6.80;59.50;;;;;;5133278;27;20067;-70
2024/01/29 00:08:08;;;;;;;6.20;2.40;;;6.70;59.40;;;;;;5132121;27;20138;-70
2024/01/29 00:10:35;;;;;;;6.00;2.90;;;6.70;59.40;;;;;;5126657;27;20337;-72
2024/01/29 00:13:02;;;;;;;6.18;2.58;;;6.70;59.60;;;;;;5132099;27;20059;-71
2024/01/29 00:15:29;;;;;;;6.90;2.72;;;6.70;59.60;;;;;;5132162;27;20470;-70
2024/01/29 00:17:56;;;;;;;6.35;2.78;;;6.60;59.70;;;;;;5131903;27;20059;-70
2024/01/29 00:20:23;;;;;;;6.20;2.67;;;6.60;59.80;;;;;;5131871;27;20123;-70
2024/01/29 00:22:50;;;;;;;8.07;2.83;;;6.60;59.80;;;;;;5132358;27;20285;-70
2024/01/29 00:25:18;;;;;;;6.32;2.78;;;6.60;59.80;;;;;;5131726;27;20144;-71
2024/01/29 00:27:45;;;;;;;6.75;2.72;;;6.60;60.00;;;;;;5129105;27;20047;-71
2024/01/29 00:30:13;;;;;;;7.30;3.08;;;6.60;60.00;;;;;;5130675;27;20055;-71
2024/01/29 00:32:40;;;;;;;6.53;2.90;;;6.50;60.00;;;;;;5131508;27;20079;-72
2024/01/29 00:35:08;;;;;;;5.80;2.60;;;6.50;60.00;;;;;;5130734;27;20261;-71
2024/01/29 00:37:35;;;;;;;5.68;2.25;;;6.50;60.20;;;;;;5131273;27;20051;-71
2024/01/29 00:40:04;;;;;;;6.80;2.80;;;6.50;60.30;;;;;;5131612;27;20052;-70
2024/01/29 00:42:33;;;;;;;5.35;2.40;;;6.40;60.30;;;;;;5131050;27;20058;-71
2024/01/29 00:45:00;;;;;;;6.27;2.90;;;6.40;60.50;;;;;;5145620;27;20138;-71
2024/01/29 00:47:27;;;;;;;6.88;2.88;;;6.40;60.50;;;;;;5152131;27;20725;-71
2024/01/29 00:49:54;;;;;;;5.97;2.70;;;6.40;60.70;;;;;;5116114;27;20050;-70
2024/01/29 00:52:21;;;;;;;5.13;2.65;;;6.40;60.80;;;;;;5129832;27;20178;-70
2024/01/29 00:54:48;;;;;;;5.60;2.67;;;6.40;60.90;;;;;;5131581;27;20089;-71
2024/01/29 00:57:15;;;;;;;6.83;2.77;;;6.30;61.00;;;;;;5131476;27;20152;-69
2024/01/29 00:59:44;;;;;;;5.82;2.50;;;6.30;61.10;;;;;;5130844;27;20253;-71
2024/01/29 01:02:11;;;;;;;4.68;2.42;;;6.30;61.10;;;;;;5124411;27;20135;-69
2024/01/29 01:04:38;;;;;;;6.03;2.42;;;6.30;61.30;;;;;;5134378;27;20042;-71
2024/01/29 01:07:05;;;;;;;5.13;2.33;;;6.30;61.40;;;;;;5151828;27;20597;-71
2024/01/29 01:09:32;;;;;;;6.13;2.33;;;6.30;61.40;;;;;;5150104;27;20047;-71
2024/01/29 01:11:59;;;;;;;6.25;2.67;;;6.30;61.50;;;;;;5129497;27;20249;-69
2024/01/29 01:14:26;;;;;;;6.25;2.50;;;6.20;61.60;;;;;;5130501;27;20750;-71
2024/01/29 01:16:54;;;;;;;5.38;2.78;;;6.30;61.90;;;;;;5130398;27;20116;-69
2024/01/29 01:19:21;;;;;;;6.18;2.75;;;6.30;62.00;;;;;;5132825;27;20589;-70
2024/01/29 01:21:49;;;;;;;5.97;2.67;;;6.30;62.10;;;;;;5130416;27;20218;-71
2024/01/29 01:24:16;;;;;;;6.30;2.67;;;6.30;62.00;;;;;;5131023;27;20225;-69
2024/01/29 01:26:43;;;;;;;5.97;2.63;;;6.30;62.00;;;;;;5130931;27;20104;-70
2024/01/29 01:29:10;;;;;;;5.57;2.90;;;6.30;62.00;;;;;;5113282;27;20055;-69
2024/01/29 01:31:37;;;;;;;5.93;2.80;;;6.30;62.20;;;;;;5130610;27;20039;-71
2024/01/29 01:34:06;;;;;;;5.87;2.40;;;6.30;62.10;;;;;;5113361;27;20170;-71
2024/01/29 01:36:33;;;;;;;5.45;2.47;;;6.30;62.00;;;;;;5144184;27;20276;-69
2024/01/29 01:39:00;;;;;;;4.75;2.28;;;6.30;62.00;;;;;;5152447;27;20498;-69
2024/01/29 01:41:27;;;;;;;7.40;2.85;;;6.20;61.90;;;;;;5134914;27;20906;-72
2024/01/29 01:43:54;;;;;;;6.97;2.50;;;6.20;61.70;;;;;;5131168;27;20112;-69
2024/01/29 01:46:22;;;;;;;5.93;2.77;;;6.20;61.80;;;;;;5130326;27;20051;-71
2024/01/29 01:48:51;;;;;;;6.47;2.72;;;6.20;61.90;;;;;;5131396;27;20260;-70
2024/01/29 01:51:20;;;;;;;7.20;2.45;;;6.10;61.80;;;;;;5130731;27;20078;-71
2024/01/29 01:53:49;;;;;;;6.35;2.70;;;6.10;62.00;;;;;;5144716;27;20634;-70
2024/01/29 01:56:17;;;;;;;7.22;2.58;;;6.10;62.00;;;;;;5121149;27;20138;-69
2024/01/29 01:58:44;;;;;;;5.30;2.77;;;6.10;62.10;;;;;;5130548;27;20047;-71
2024/01/29 02:01:13;;;;;;;8.07;2.78;;;6.00;62.10;;;;;;5129949;27;20285;-71
2024/01/29 02:03:42;;;;;;;6.10;2.90;;;6.00;62.10;;;;;;5131226;27;20135;-72
2024/01/29 02:06:10;;;;;;;5.40;2.83;;;6.00;62.10;;;;;;5130694;27;20059;-71
2024/01/29 02:08:39;;;;;;;6.93;2.80;;;6.00;62.20;;;;;;5130349;27;20105;-71
2024/01/29 02:11:06;;;;;;;6.27;2.60;;;6.00;62.30;;;;;;5131789;27;20196;-70
2024/01/29 02:13:34;;;;;;;5.00;2.40;;;6.00;62.30;;;;;;5130629;27;20448;-70
2024/01/29 02:16:02;;;;;;;5.57;2.60;;;6.00;62.50;;;;;;5113555;27;20098;-69
2024/01/29 02:18:30;;;;;;;7.22;2.80;;;6.00;62.40;;;;;;5113012;27;20062;-69
2024/01/29 02:20:57;;;;;;;5.65;2.70;;;6.00;62.40;;;;;;5130345;27;20879;-72
2024/01/29 02:23:25;;;;;;;6.27;2.43;;;6.00;62.50;;;;;;5113333;27;20981;-69
2024/01/29 02:25:52;;;;;;;7.53;2.95;;;6.00;62.50;;;;;;5130506;27;21049;-71
2024/01/29 02:28:19;;;;;;;7.53;2.80;;;6.00;62.50;;;;;;5143968;27;20166;-69
2024/01/29 02:30:46;;;;;;;6.15;2.90;;;6.00;62.50;;;;;;5149560;27;20051;-71
2024/01/29 02:33:13;;;;;;;7.07;2.67;;;6.00;62.60;;;;;;5131510;27;20525;-69
2024/01/29 02:35:40;;;;;;;6.17;2.60;;;6.00;62.60;;;;;;5110368;27;20138;-70
2024/01/29 02:38:07;;;;;;;5.63;2.80;;;6.00;62.60;;;;;;5127654;27;20299;-71
2024/01/29 02:40:35;;;;;;;5.93;3.00;;;6.00;62.80;;;;;;5110740;27;20138;-69
2024/01/29 02:43:02;;;;;;;7.93;2.72;;;6.00;62.80;;;;;;5127863;27;20056;-71
2024/01/29 02:45:29;;;;;;;7.30;3.25;;;6.00;62.80;;;;;;5126875;27;20111;-71
2024/01/29 02:47:56;;;;;;;8.57;3.30;;;6.00;62.80;;;;;;5130293;27;20078;-71
2024/01/29 02:50:25;;;;;;;5.55;2.72;;;6.00;62.80;;;;;;5130406;27;21089;-71
2024/01/29 02:52:53;;;;;;;5.60;3.05;;;6.00;62.80;;;;;;5112671;27;20101;-71
2024/01/29 02:55:20;;;;;;;7.15;2.88;;;6.00;62.90;;;;;;5142010;27;20193;-71
2024/01/29 02:57:48;;;;;;;5.80;2.90;;;5.90;63.00;;;;;;5130232;27;20054;-71
2024/01/29 03:00:15;;;;;;;5.83;2.90;;;6.00;63.00;;;;;;5112665;27;20134;-71
2024/01/29 03:02:42;;;;;;;7.32;3.10;;;6.00;63.00;;;;;;5123460;27;20364;-69
2024/01/29 03:05:09;;;;;;;7.13;3.05;;;5.90;63.10;;;;;;5129475;27;20182;-69
2024/01/29 03:07:36;;;;;;;7.80;3.00;;;5.90;63.20;;;;;;5129378;27;20079;-71
2024/01/29 03:10:04;;;;;;;6.97;2.88;;;5.90;63.20;;;;;;5129172;27;20154;-71
2024/01/29 03:12:31;;;;;;;6.60;3.00;;;5.90;63.30;;;;;;5128912;27;20163;-70
2024/01/29 03:15:00;;;;;;;5.72;2.70;;;5.90;63.40;;;;;;5129247;27;20365;-68
2024/01/29 03:17:27;;;;;;;7.07;3.00;;;5.80;63.40;;;;;;5112363;27;20858;-70
2024/01/29 03:19:54;;;;;;;6.25;2.50;;;5.80;63.40;;;;;;5127064;27;20162;-71
2024/01/29 03:22:21;;;;;;;7.47;2.80;;;5.80;63.50;;;;;;5129101;27;20139;-69
2024/01/29 03:24:48;;;;;;;6.17;3.00;;;5.80;63.50;;;;;;5129546;27;20147;-70
2024/01/29 03:27:15;;;;;;;5.00;2.58;;;5.80;63.60;;;;;;5128489;27;20265;-71
2024/01/29 03:29:41;;;;;;;7.00;3.15;;;5.80;63.60;;;;;;5129144;27;20051;-69
2024/01/29 03:32:10;;;;;;;7.13;3.10;;;5.70;63.60;;;;;;5111306;27;20066;-70
2024/01/29 03:34:41;;;;;;;6.47;2.75;;;5.70;63.60;;;;;;5128674;27;20520;-69
2024/01/29 03:37:08;;;;;;;6.20;2.90;;;5.70;63.70;;;;;;5138491;27;20047;-71
2024/01/29 03:39:35;;;;;;;5.75;2.80;;;5.70;63.70;;;;;;5149996;27;21090;-69
2024/01/29 03:42:02;;;;;;;5.95;2.80;;;5.70;63.80;;;;;;5149846;27;20141;-70
2024/01/29 03:44:29;;;;;;;6.70;3.00;;;5.70;63.90;;;;;;5133147;27;20077;-70
2024/01/29 03:46:56;;;;;;;6.68;3.00;;;5.70;64.00;;;;;;5131546;27;20147;-71
2024/01/29 03:49:24;;;;;;;6.50;3.30;;;5.70;64.00;;;;;;5129162;27;20157;-71
2024/01/29 03:51:51;;;;;;;5.82;2.88;;;5.60;64.00;;;;;;5128682;27;20336;-70
2024/01/29 03:54:18;;;;;;;7.47;3.28;;;5.60;64.10;;;;;;5139294;27;20154;-71
2024/01/29 03:56:45;;;;;;;7.15;3.75;;;5.60;64.20;;;;;;5132241;27;20058;-71
2024/01/29 03:59:12;;;;;;;8.02;3.05;;;5.60;64.30;;;;;;5134794;27;20558;-71
2024/01/29 04:01:39;;;;;;;6.07;3.00;;;5.60;64.60;;;;;;5128165;27;20142;-69
2024/01/29 04:04:10;;;;;;;7.40;3.22;;;5.60;64.50;;;;;;5111477;27;21508;-70
2024/01/29 04:06:40;;;;;;;6.38;3.00;;;5.50;64.50;;;;;;5111643;27;20055;-71
2024/01/29 04:09:09;;;;;;;6.18;3.10;;;5.50;64.70;;;;;;5110970;27;20051;-71
2024/01/29 04:11:36;;;;;;;6.80;2.90;;;5.50;64.70;;;;;;5140752;27;20055;-71
2024/01/29 04:14:03;;;;;;;6.77;3.33;;;5.50;64.80;;;;;;5137061;27;20047;-72
2024/01/29 04:16:30;;;;;;;7.55;3.10;;;5.50;64.90;;;;;;5129007;27;20840;-70
2024/01/29 04:18:57;;;;;;;7.03;3.30;;;5.50;65.00;;;;;;5128799;27;20091;-71
2024/01/29 04:21:24;;;;;;;7.72;3.20;;;5.50;65.00;;;;;;5128106;27;20134;-69
2024/01/29 04:23:53;;;;;;;6.32;2.75;;;5.50;65.00;;;;;;5129146;27;20079;-70
2024/01/29 04:26:20;;;;;;;6.13;3.00;;;5.50;65.10;;;;;;5128849;27;20061;-71
2024/01/29 04:28:47;;;;;;;6.28;2.88;;;5.50;65.10;;;;;;5131676;27;20306;-68
2024/01/29 04:31:15;;;;;;;6.75;3.40;;;5.50;65.20;;;;;;5128327;27;20052;-71
2024/01/29 04:33:43;;;;;;;6.10;2.70;;;5.50;65.20;;;;;;5129739;27;20063;-71
2024/01/29 04:36:13;;;;;;;6.95;3.42;;;5.50;65.30;;;;;;5131907;27;20055;-71
2024/01/29 04:38:42;;;;;;;7.63;3.90;;;5.50;65.30;;;;;;5131709;27;20051;-71
2024/01/29 04:41:17;;;;;;;6.90;3.40;;;5.50;65.40;;;;;;5131160;27;20248;-71
2024/01/29 04:43:44;;;;;;;6.57;3.47;;;5.50;65.40;;;;;;5132037;27;20116;-69
2024/01/29 04:46:11;;;;;;;7.82;3.30;;;5.50;65.40;;;;;;5130146;27;20061;-69
2024/01/29 04:48:39;;;;;;;8.55;3.47;;;5.50;65.50;;;;;;5132169;27;20080;-70
2024/01/29 04:51:10;;;;;;;6.43;3.20;;;5.50;65.50;;;;;;5130631;27;20047;-70
2024/01/29 04:53:38;;;;;;;7.63;3.53;;;5.50;65.50;;;;;;5114260;27;20354;-69
2024/01/29 04:56:06;;;;;;;6.40;3.25;;;5.40;65.50;;;;;;5113990;27;20467;-68
2024/01/29 04:58:35;;;;;;;6.38;3.45;;;5.30;65.60;;;;;;5131583;27;20544;-69
2024/01/29 05:01:02;;;;;;;7.90;3.50;;;5.30;65.50;;;;;;5130649;27;20134;-72
2024/01/29 05:03:29;;;;;;;6.67;3.20;;;5.30;65.60;;;;;;5142945;27;20178;-71
2024/01/29 05:05:56;;;;;;;7.60;3.25;;;5.30;65.70;;;;;;5136779;27;20396;-69
2024/01/29 05:08:23;;;;;;;7.68;3.40;;;5.30;65.80;;;;;;5130634;27;20087;-71
2024/01/29 05:10:50;;;;;;;8.00;3.55;;;5.30;65.90;;;;;;5112909;27;20066;-70
2024/01/29 05:13:18;;;;;;;8.63;3.60;;;5.30;66.00;;;;;;5131064;27;20682;-71
2024/01/29 05:15:46;;;;;;;6.60;3.40;;;5.20;66.10;;;;;;5130640;27;20531;-71
2024/01/29 05:18:13;;;;;;;7.95;3.33;;;5.20;66.20;;;;;;5131124;27;20298;-71
2024/01/29 05:20:40;;;;;;;6.90;3.47;;;5.20;66.20;;;;;;5127509;27;20055;-69
2024/01/29 05:23:07;;;;;;;8.05;3.42;;;5.20;66.40;;;;;;5130981;27;20053;-70
2024/01/29 05:25:34;;;;;;;6.75;3.40;;;5.20;66.40;;;;;;5113695;27;20145;-69
2024/01/29 05:28:01;;;;;;;7.40;3.40;;;5.20;66.50;;;;;;5130024;27;20051;-71
2024/01/29 05:30:28;;;;;;;6.88;3.50;;;5.20;66.50;;;;;;5113265;27;20822;-71
2024/01/29 05:32:56;;;;;;;7.93;3.47;;;5.10;66.70;;;;;;5114117;27;20083;-71
2024/01/29 05:35:23;;;;;;;7.60;3.33;;;5.10;66.70;;;;;;5130661;27;20075;-71
2024/01/29 05:37:50;;;;;;;6.13;3.17;;;5.10;66.90;;;;;;5128605;27;20425;-71
2024/01/29 05:40:17;;;;;;;8.63;3.60;;;5.10;66.80;;;;;;5137036;27;20125;-71
2024/01/29 05:42:51;;;;;;;7.65;3.50;;;5.10;67.00;;;;;;5134132;27;20901;-69
2024/01/29 05:45:18;;;;;;;8.07;3.80;;;5.20;67.00;;;;;;5149805;27;20063;-72
2024/01/29 05:47:45;;;;;;;8.23;3.70;;;5.20;67.10;;;;;;5148854;27;20096;-71
2024/01/29 05:50:14;;;;;;;8.93;4.03;;;5.20;67.20;;;;;;5144813;27;20624;-71
2024/01/29 05:52:41;;;;;;;7.70;3.90;;;5.20;67.50;;;;;;5130211;27;20134;-71
2024/01/29 05:55:09;;;;;;;8.20;3.83;;;5.20;67.50;;;;;;5135784;27;20249;-71
2024/01/29 05:57:35;;;;;;;7.65;3.63;;;5.20;67.60;;;;;;5150944;27;20234;-70
2024/01/29 06:00:06;;;;;;;7.05;3.65;;;5.20;67.50;;;;;;5151293;27;20157;-71
2024/01/29 06:02:42;;;;;;;7.82;3.83;;;5.20;67.70;;;;;;5134434;27;20051;-71
2024/01/29 06:05:11;;;;;;;7.13;3.43;;;5.20;67.60;;;;;;5129398;27;20096;-69
2024/01/29 06:07:40;;;;;;;8.38;3.70;;;5.20;67.70;;;;;;5111089;27;20261;-69
2024/01/29 06:10:09;;;;;;;8.65;4.00;;;5.20;67.70;;;;;;5112807;27;20082;-69
2024/01/29 06:12:36;;;;;;;7.55;3.72;;;5.20;67.70;;;;;;5116089;27;20793;-70
2024/01/29 06:15:04;;;;;;;5.78;3.40;;;5.10;67.80;;;;;;5129727;27;20480;-70
2024/01/29 06:17:32;;;;;;;7.47;3.70;;;5.20;67.70;;;;;;5129753;27;20083;-71
2024/01/29 06:19:59;;;;;;;7.68;3.78;;;5.20;67.90;;;;;;5129173;27;21237;-71
2024/01/29 06:22:26;;;;;;;7.18;3.80;;;5.10;67.80;;;;;;5110769;27;20112;-70
2024/01/29 06:24:54;;;;;;;8.55;3.90;;;5.10;68.00;;;;;;5128564;27;20139;-70
2024/01/29 06:27:21;;;;;;;6.55;3.50;;;5.10;67.90;;;;;;5128003;27;20669;-70
2024/01/29 06:29:48;;;;;;;8.27;3.90;;;5.10;68.00;;;;;;5135779;27;20055;-71
2024/01/29 06:32:15;;;;;;;8.07;3.92;;;5.10;68.00;;;;;;5141694;27;20364;-71
2024/01/29 06:34:41;;;;;;;8.07;3.88;;;5.10;68.10;;;;;;5128745;27;20051;-71
2024/01/29 06:37:08;;;;;;;8.13;3.88;;;5.10;68.20;;;;;;5127287;27;20051;-70
2024/01/29 06:39:35;;;;;;;7.50;3.83;;;5.10;68.30;;;;;;5127909;27;20135;-69
2024/01/29 06:42:04;;;;;;;7.67;4.30;;;5.00;68.40;;;;;;5126928;27;20138;-70
2024/01/29 06:44:31;;;;;;;7.10;3.90;;;5.10;68.70;;;;;;5128718;27;20736;-71
2024/01/29 06:46:58;;;;;;;8.30;4.13;;;5.10;68.70;;;;;;5152744;27;20139;-71
2024/01/29 06:49:30;;;;;;;8.43;3.83;;;5.00;68.70;;;;;;5111468;27;20518;-70
2024/01/29 06:51:57;;;;;;;7.47;3.90;;;5.00;68.70;;;;;;5114152;27;20054;-71
2024/01/29 06:54:24;;;;;;;7.87;4.00;;;5.00;68.70;;;;;;5144753;27;20457;-70
2024/01/29 06:56:52;;;;;;;7.47;3.85;;;5.00;68.90;;;;;;5142943;27;20253;-70
2024/01/29 06:59:20;;;;;;;6.60;3.60;;;5.10;69.00;;;;;;5165770;27;20675;-71
2024/01/29 07:01:47;;;;;;;8.55;3.90;;;5.00;69.10;;;;;;5146303;27;20050;-72
2024/01/29 07:04:14;;;;;;;8.05;4.20;;;5.10;69.20;;;;;;5125452;27;20074;-72
2024/01/29 07:06:42;;;;;;;8.53;3.93;;;5.00;69.30;;;;;;5146917;27;20062;-70
2024/01/29 07:09:09;;;;;;;7.82;3.90;;;5.00;69.50;;;;;;5146112;27;21225;-70
2024/01/29 07:11:36;;;;;;;9.15;4.20;;;5.10;69.40;;;;;;5146188;27;20130;-70
2024/01/29 07:14:03;;;;;;;9.30;4.15;;;5.10;69.60;;;;;;5143002;27;20111;-70
2024/01/29 07:16:31;;;;;;;9.95;4.03;;;5.10;69.80;;;;;;5145861;27;20059;-71
2024/01/29 07:18:58;;;;;;;8.53;4.03;;;5.00;69.60;;;;;;5145369;27;20051;-70
2024/01/29 07:21:25;;;;;;;8.10;4.10;;;5.00;69.70;;;;;;5140517;27;20810;-71
2024/01/29 07:23:52;;;;;;;7.15;3.67;;;5.00;69.80;;;;;;5143422;27;20049;-73
2024/01/29 07:26:18;;;;;;;9.52;3.80;;;5.00;69.70;;;;;;5141620;27;20137;-70
2024/01/29 07:28:45;;;;;;;8.63;4.13;;;5.00;69.90;;;;;;5140048;27;20121;-70
2024/01/29 07:31:12;;;;;;;7.70;3.90;;;5.00;69.90;;;;;;5143484;27;20141;-70
2024/01/29 07:33:41;;;;;;;8.05;3.97;;;5.00;69.90;;;;;;5144631;27;20252;-73
2024/01/29 07:36:08;;;;;;;9.15;4.53;;;5.00;70.10;;;;;;5144893;27;20082;-70
2024/01/29 07:38:35;;;;;;;8.25;4.40;;;5.00;70.10;;;;;;5139153;27;20043;-71
2024/01/29 07:41:02;;;;;;;8.57;3.92;;;5.00;70.20;;;;;;5124703;27;20047;-71
2024/01/29 07:43:29;;;;;;;8.37;4.50;;;5.00;70.20;;;;;;5142061;27;20596;-70
2024/01/29 07:45:56;;;;;;;8.77;3.67;;;5.10;70.40;;;;;;5143267;27;20237;-71
2024/01/29 07:48:23;;;;;;;9.48;3.70;;;5.10;70.40;;;;;;5139643;27;20051;-72
2024/01/29 07:50:51;;;;;;;8.68;4.35;;;5.10;70.40;;;;;;5144754;27;20082;-70
2024/01/29 07:53:18;;;;;;;8.32;4.20;;;5.00;70.40;;;;;;5146639;27;20055;-69
2024/01/29 07:55:45;;;;;;;8.80;3.90;;;5.00;70.60;;;;;;5143287;27;20051;-72
2024/01/29 07:58:12;;;;;;;10.05;4.30;;;5.10;70.80;;;;;;5126775;27;20386;-70
2024/01/29 08:00:39;;;;;;;10.23;4.63;;;5.10;70.70;;;;;;5143362;27;20128;-71
2024/01/29 08:03:07;;;;;;;9.02;4.95;;;5.00;70.80;;;;;;5163938;27;20130;-70
2024/01/29 08:05:35;;;;;;;11.88;5.75;;;5.10;70.90;;;;;;5143945;27;20047;-70
2024/01/29 08:08:04;;;;;;;9.57;4.80;;;5.00;71.20;;;;;;5143344;27;20130;-70
2024/01/29 08:10:31;;;;;;;9.45;4.82;;;5.10;71.00;;;;;;5145177;27;20412;-71
2024/01/29 08:12:58;;;;;;;8.70;4.18;;;5.10;71.20;;;;;;5141856;27;20557;-70
2024/01/29 08:15:28;;;;;;;8.80;4.63;;;5.10;71.40;;;;;;5147450;27;20086;-70
2024/01/29 08:17:56;;;;;;;8.55;4.10;;;5.10;71.40;;;;;;5144616;27;20604;-70
2024/01/29 08:20:24;;;;;;;9.37;4.70;;;5.10;71.60;;;;;;5149604;27;20771;-70
2024/01/29 08:22:51;;;;;;;7.75;4.20;;;5.10;71.60;;;;;;5144189;27;20241;-70
2024/01/29 08:25:20;;;;;;;10.60;4.78;;;5.10;71.50;;;;;;5130086;27;20082;-70
2024/01/29 08:27:47;;;;;;;10.35;3.88;;;5.10;71.50;;;;;;5146288;27;20047;-71
2024/01/29 08:30:14;;;;;;;7.80;4.53;;;5.10;71.70;;;;;;5145414;27;20580;-72
2024/01/29 08:32:44;;;;;;;7.50;4.50;;;5.10;71.80;;;;;;5147094;27;20055;-70
2024/01/29 08:35:11;;;;;;;10.23;4.40;;;5.20;72.20;;;;;;5147657;27;20276;-72
2024/01/29 08:37:41;;;;;;;8.73;5.05;;;5.30;72.10;;;;;;5149927;27;20047;-72
2024/01/29 08:40:08;;;;;;;8.45;4.53;;;5.30;72.10;;;;;;5146736;27;20051;-70
2024/01/29 08:42:37;;;;;;;7.15;3.78;;;5.30;72.10;;;;;;5150759;27;20046;-71
2024/01/29 08:45:04;;;;;;;8.13;4.23;;;5.30;72.10;;;;;;5149267;27;20517;-70
2024/01/29 08:47:31;;;;;;;8.90;4.55;;;5.30;72.40;;;;;;5144054;27;21037;-70
2024/01/29 08:49:58;;;;;;;8.90;4.70;;;5.30;72.30;;;;;;5149209;27;20146;-71
2024/01/29 08:52:25;;;;;;;10.13;4.80;;;5.40;72.50;;;;;;5143817;27;20557;-70
2024/01/29 08:54:52;;;;;;;8.60;5.10;;;5.50;72.60;;;;;;5148220;27;20051;-72
2024/01/29 08:57:19;;;;;;;10.40;5.30;;;5.50;72.90;;;;;;5127241;27;20158;-72
2024/01/29 08:59:47;;;;;;;7.90;4.43;;;5.50;72.90;;;;;;5125938;27;20356;-70
2024/01/29 09:02:14;;;;;;;9.65;4.95;;;5.50;72.70;;;;;;5137855;27;20143;-72
2024/01/29 09:04:41;;;;;;;9.45;4.15;;;5.60;72.80;;;;;;5141155;27;20158;-71
2024/01/29 09:07:09;;;;;;;10.15;5.00;;;5.60;72.70;;;;;;5127106;27;20373;-71
2024/01/29 09:09:36;;;;;;;8.87;4.60;;;5.60;72.70;;;;;;5147850;27;20046;-70
2024/01/29 09:12:03;;;;;;;8.48;4.43;;;5.60;73.00;;;;;;5147251;27;20256;-71
2024/01/29 09:14:30;;;;;;;10.50;4.72;;;5.70;73.00;;;;;;5143492;27;20528;-70
2024/01/29 09:16:58;;;;;;;9.85;5.13;;;5.70;73.20;;;;;;5142492;27;20163;-73
2024/01/29 09:19:25;;;;;;;8.93;5.43;;;5.80;73.20;;;;;;5145215;27;20977;-70
2024/01/29 09:21:52;;;;;;;10.20;4.60;;;5.80;73.00;;;;;;5142259;27;20070;-70
2024/01/29 09:24:19;;;;;;;9.30;5.20;;;5.80;73.10;;;;;;5145306;27;20307;-73
2024/01/29 09:26:46;;;;;;;9.57;5.03;;;5.90;73.00;;;;;;5144181;27;20146;-71
2024/01/29 09:29:13;;;;;;;7.85;4.82;;;5.90;73.10;;;;;;5148222;27;20575;-72
2024/01/29 09:31:42;;;;;;;9.85;5.22;;;5.90;73.00;;;;;;5147204;27;20054;-71
2024/01/29 09:34:10;;;;;;;9.80;5.27;;;6.00;73.30;;;;;;5146741;27;20086;-70
2024/01/29 09:36:37;;;;;;;11.50;5.50;;;6.00;73.40;;;;;;5148616;27;20385;-71
2024/01/29 09:39:05;;;;;;;8.55;4.63;;;6.10;73.40;;;;;;5125577;27;20082;-72
2024/01/29 09:41:35;;;;;;;9.15;5.32;;;6.10;73.30;;;;;;5125743;27;20647;-72
2024/01/29 09:44:06;;;;;;;9.80;5.35;;;6.20;73.30;;;;;;5127833;27;20059;-71
2024/01/29 09:46:37;;;;;;;9.43;5.10;;;6.20;73.20;;;;;;5127979;27;20441;-69
2024/01/29 09:49:04;;;;;;;10.57;5.18;;;6.30;73.40;;;;;;5117720;27;20284;-71
2024/01/29 09:51:33;;;;;;;10.10;5.28;;;6.30;73.40;;;;;;5147725;27;20050;-70
2024/01/29 09:54:01;;;;;;;10.48;6.00;;;6.40;73.50;;;;;;5145181;27;20066;-72
2024/01/29 09:56:28;;;;;;;11.57;6.03;;;6.40;73.40;;;;;;5139808;27;20070;-72
2024/01/29 09:58:55;;;;;;;10.50;5.80;;;6.50;73.30;;;;;;5144634;27;20125;-70
2024/01/29 10:01:24;;;;;;;11.38;5.90;;;6.50;73.30;;;;;;5146284;27;20248;-71
2024/01/29 10:03:51;;;;;;;11.20;5.85;;;6.60;73.30;;;;;;5126734;27;20501;-70
2024/01/29 10:06:18;;;;;;;10.40;5.25;;;6.60;73.40;;;;;;5145193;27;20043;-70
2024/01/29 10:08:47;;;;;;;10.00;5.60;;;6.70;73.40;;;;;;5129001;27;20046;-72
2024/01/29 10:11:16;;;;;;;11.43;5.93;;;6.70;73.50;;;;;;5149266;27;20992;-72
2024/01/29 10:13:43;;;;;;;11.27;6.30;;;6.80;73.50;;;;;;5143991;27;20250;-71
2024/01/29 10:16:10;;;;;;;9.95;5.93;;;6.90;73.50;;;;;;5125799;27;20627;-72
2024/01/29 10:18:37;;;;;;;10.85;5.88;;;6.90;73.70;;;;;;5127954;27;20137;-73
2024/01/29 10:21:06;;;;;;;11.50;5.78;;;6.90;73.70;;;;;;5146407;27;20062;-72
2024/01/29 10:23:33;;;;;;;11.93;6.80;;;7.00;73.70;;;;;;5131415;27;20078;-71
2024/01/29 10:26:02;;;;;;;13.95;7.43;;;7.00;73.90;;;;;;5144502;27;20281;-70
2024/01/29 10:28:29;;;;;;;15.52;8.52;;;7.10;74.00;;;;;;5148825;27;20179;-72
2024/01/29 10:30:58;;;;;;;13.85;7.07;;;7.20;74.10;;;;;;5147156;27;20057;-70
2024/01/29 10:33:25;;;;;;;11.93;6.93;;;7.20;74.20;;;;;;5137725;27;20138;-70
2024/01/29 10:35:52;;;;;;;13.07;7.40;;;7.30;74.10;;;;;;5127277;27;20548;-71
2024/01/29 10:38:22;;;;;;;11.57;7.30;;;7.40;74.00;;;;;;5107587;27;20293;-70
2024/01/29 10:40:50;;;;;;;14.23;7.03;;;7.50;73.80;;;;;;5125029;27;20047;-72
2024/01/29 10:43:20;;;;;;;13.10;7.30;;;7.50;73.60;;;;;;5116109;27;20051;-72
2024/01/29 10:45:51;;;;;;;13.13;6.63;;;7.60;73.60;;;;;;5125880;27;20378;-72
2024/01/29 10:48:22;;;;;;;13.50;7.10;;;7.70;73.50;;;;;;5126103;27;20067;-70
2024/01/29 10:50:50;;;;;;;12.77;7.13;;;7.80;73.40;;;;;;5123988;27;20451;-70
2024/01/29 10:53:18;;;;;;;13.25;7.38;;;7.80;73.40;;;;;;5128039;27;20513;-70
2024/01/29 10:55:46;;;;;;;11.13;7.13;;;7.80;73.50;;;;;;5127681;27;20568;-70
2024/01/29 10:58:14;;;;;;;12.88;6.78;;;7.80;73.50;;;;;;5127408;27;20051;-70
2024/01/29 11:00:44;;;;;;;12.70;7.03;;;7.90;73.50;;;;;;5128217;27;20563;-70
2024/01/29 11:03:13;;;;;;;12.35;6.82;;;8.00;73.70;;;;;;5126878;27;20260;-70
2024/01/29 11:05:41;;;;;;;12.48;7.45;;;8.00;73.50;;;;;;5126961;27;20650;-73
2024/01/29 11:08:16;;;;;;;14.93;7.65;;;8.00;73.60;;;;;;5140927;27;20070;-73
2024/01/29 11:10:43;;;;;;;14.32;7.80;;;8.10;73.60;;;;;;5140968;27;20095;-71
2024/01/29 11:13:12;;;;;;;13.63;7.70;;;8.20;73.30;;;;;;5144224;27;20138;-73
2024/01/29 11:15:41;;;;;;;11.82;5.95;;;8.30;73.20;;;;;;5145702;27;20317;-72
2024/01/29 11:18:11;;;;;;;13.20;8.10;;;8.40;73.30;;;;;;5143549;27;20049;-72
2024/01/29 11:20:39;;;;;;;13.65;7.85;;;8.40;73.20;;;;;;5127817;27;20054;-71
2024/01/29 11:23:06;;;;;;;11.55;6.90;;;8.40;73.30;;;;;;5145391;27;20141;-73
2024/01/29 11:25:33;;;;;;;13.30;7.67;;;8.50;73.20;;;;;;5142954;27;20553;-71
2024/01/29 11:28:02;;;;;;;11.52;6.68;;;8.60;73.20;;;;;;5144424;27;20284;-73
2024/01/29 11:30:29;;;;;;;12.75;7.65;;;8.60;73.20;;;;;;5146984;27;20186;-71
2024/01/29 11:33:11;;;;;;;12.73;6.90;;;8.60;73.10;;;;;;5144858;27;20485;-71
2024/01/29 11:35:40;;;;;;;13.27;7.28;;;8.70;73.20;;;;;;5147656;27;20047;-71
2024/01/29 11:38:08;;;;;;;13.60;7.83;;;8.80;73.20;;;;;;5142480;27;20096;-71
2024/01/29 11:40:38;;;;;;;12.00;7.68;;;8.90;73.00;;;;;;5144997;27;21135;-72
2024/01/29 11:43:11;;;;;;;13.57;7.75;;;9.00;73.10;;;;;;5142493;27;20945;-71
2024/01/29 11:45:38;;;;;;;14.55;7.85;;;9.00;72.90;;;;;;5149500;27;20095;-71
2024/01/29 11:48:10;;;;;;;12.90;7.18;;;9.00;72.80;;;;;;5150677;27;20055;-72
2024/01/29 11:50:39;;;;;;;12.90;7.10;;;9.00;72.80;;;;;;5141963;27;20509;-71
2024/01/29 11:53:09;;;;;;;9.70;5.05;;;9.10;73.10;;;;;;5129017;27;20346;-72
2024/01/29 11:55:36;;;;;;;13.80;7.65;;;9.10;73.10;;;;;;5129161;27;20130;-71
2024/01/29 11:58:03;;;;;;;15.35;8.65;;;9.10;72.90;;;;;;5127874;27;20138;-71
2024/01/29 12:00:30;;;;;;;13.82;8.85;;;9.10;73.00;;;;;;5126062;27;20051;-71
2024/01/29 12:02:57;;;;;;;11.60;6.43;;;9.10;73.00;;;;;;5128662;27;20112;-71
2024/01/29 12:05:24;;;;;;;13.20;7.90;;;9.10;73.00;;;;;;5128347;27;20279;-71
2024/01/29 12:07:53;;;;;;;13.68;8.27;;;9.10;73.00;;;;;;5129355;27;20071;-70
2024/01/29 12:10:20;;;;;;;12.85;7.53;;;9.10;73.00;;;;;;5143381;27;20365;-72
2024/01/29 12:12:47;;;;;;;14.48;7.80;;;9.10;73.00;;;;;;5150753;27;20137;-72
2024/01/29 12:15:14;;;;;;;15.30;8.17;;;9.00;73.20;;;;;;5148221;27;20142;-70
2024/01/29 12:17:44;;;;;;;16.40;8.15;;;9.00;73.30;;;;;;5146551;27;20399;-71
2024/01/29 12:20:12;;;;;;;14.80;8.00;;;9.00;73.40;;;;;;5149167;27;20078;-71
2024/01/29 12:22:39;;;;;;;16.67;8.35;;;9.00;73.50;;;;;;5151217;27;20050;-71
2024/01/29 12:25:11;;;;;;;15.63;8.05;;;9.00;73.60;;;;;;5147435;27;20079;-71
2024/01/29 12:27:39;;;;;;;16.77;8.03;;;9.00;73.60;;;;;;5129583;27;20055;-72
2024/01/29 12:30:07;;;;;;;17.48;7.93;;;9.00;73.80;;;;;;5129151;27;20336;-72
2024/01/29 12:32:35;;;;;;;15.93;8.32;;;9.00;73.80;;;;;;5127626;27;20051;-71
2024/01/29 12:35:02;;;;;;;15.38;8.23;;;9.10;74.10;;;;;;5125454;27;20051;-72
2024/01/29 12:37:30;;;;;;;15.85;8.00;;;9.10;73.90;;;;;;5146401;27;20051;-72
2024/01/29 12:39:57;;;;;;;12.93;7.53;;;9.10;74.00;;;;;;5110980;27;20473;-72
2024/01/29 12:42:26;;;;;;;13.10;7.53;;;9.10;74.10;;;;;;5127264;27;20299;-72
2024/01/29 12:44:55;;;;;;;13.30;7.55;;;9.10;74.10;;;;;;5128110;27;20047;-72
2024/01/29 12:47:23;;;;;;;13.30;7.68;;;9.20;74.20;;;;;;5130549;27;20513;-72
2024/01/29 12:49:50;;;;;;;14.15;7.88;;;9.20;74.20;;;;;;5130345;27;20055;-71
2024/01/29 12:52:17;;;;;;;13.00;7.63;;;9.20;74.20;;;;;;5131415;27;20043;-72
2024/01/29 12:54:48;;;;;;;14.50;7.07;;;9.20;74.20;;;;;;5148707;27;20352;-71
2024/01/29 12:57:15;;;;;;;15.40;8.25;;;9.20;74.10;;;;;;5131095;27;20483;-72